Latest Weather Observations for Wattamolla

IDN60901

Issued at 1:51 pm EDT Tuesday 30 November 2021 (issued every 10 minutes, with the page automatically refreshed every 10 minutes)

About weather observations | Map of Sydney area stations | Latest observations for Sydney area | Other Formats
Station Details ID: 066208 Name: WATTAMOLLA AWS Lat: -34.14 Lon: 151.12 Height: 44.0 m
Data from the previous 72 hours. | See also: Recent months at Wattamolla
Date/Time
EDT
Temp
°C
App
Temp
°C
Dew
Point
°C
Rel
Hum
%
Delta-T
°C
Wind Press
QNH
hPa
Press
MSL
hPa
Rain since
9am
mm
Dir  Spd
km/h
Gust
km/h
Spd
kts
Gust
kts
30/01:30pm - - - - - SSE 6 7 3 4 - - -
30/01:00pm - - - - - S 9 9 5 5 - - -
30/12:30pm - - - - - S 9 9 5 5 - - -
30/12:00pm - - - - - S 9 11 5 6 - - -
30/11:30am - - - - - S 7 9 4 5 - - -
30/11:00am - - - - - SSE 7 9 4 5 - - -
30/10:30am - - - - - SSE 7 11 4 6 - - -
30/10:00am - - - - - S 9 9 5 5 - - -
30/09:30am - - - - - S 9 13 5 7 - - -
30/09:00am - - - - - S 9 11 5 6 - - -
30/08:30am - - - - - SSE 7 9 4 5 - - -
30/08:00am - - - - - S 9 11 5 6 - - -
30/07:30am - - - - - S 11 13 6 7 - - -
30/07:00am - - - - - S 7 9 4 5 - - -
30/06:30am - - - - - SW 7 9 4 5 - - -
30/06:00am - - - - - SSW 11 15 6 8 - - -
30/05:30am - - - - - S 13 17 7 9 - - -
30/05:00am - - - - - S 13 20 7 11 - - -
30/04:30am - - - - - S 11 17 6 9 - - -
30/04:00am - - - - - SSW 9 11 5 6 - - -
30/03:30am - - - - - WSW 9 11 5 6 - - -
30/03:00am - - - - - WSW 9 13 5 7 - - -
30/02:30am - - - - - WSW 11 11 6 6 - - -
30/02:00am - - - - - WSW 9 9 5 5 - - -
30/01:30am - - - - - SSW 7 11 4 6 - - -
30/01:00am - - - - - NNW 2 7 1 4 - - -
30/12:30am - - - - - NNE 4 7 2 4 - - -
30/12:00am - - - - - NNE 9 11 5 6 - - -
 
Date/Time
EDT
Temp
°C
App
Temp
°C
Dew
Point
°C
Rel
Hum
%
Delta-T
°C
Wind Press
QNH
hPa
Press
MSL
hPa
Rain since
9am
mm
Dir  Spd
km/h
Gust
km/h
Spd
kts
Gust
kts
29/11:30pm - - - - - NNE 9 11 5 6 - - -
29/11:00pm - - - - - N 9 11 5 6 - - -
29/10:30pm - - - - - NNW 9 11 5 6 - - -
29/10:00pm - - - - - NNW 9 11 5 6 - - -
29/09:30pm - - - - - N 9 11 5 6 - - -
29/09:00pm - - - - - NNE 7 9 4 5 - - -
29/08:30pm - - - - - NE 9 13 5 7 - - -
29/08:00pm - - - - - ENE 9 11 5 6 - - -
29/07:30pm - - - - - ENE 9 13 5 7 - - -
29/07:00pm - - - - - ENE 11 15 6 8 - - -
29/06:30pm - - - - - E 11 15 6 8 - - -
29/06:00pm - - - - - E 9 15 5 8 - - -
29/05:30pm - - - - - E 9 13 5 7 - - -
29/05:00pm - - - - - E 9 13 5 7 - - -
29/04:30pm - - - - - ESE 9 15 5 8 - - -
29/04:00pm - - - - - ESE 11 15 6 8 - - -
29/03:30pm - - - - - SE 13 15 7 8 - - -
29/03:00pm - - - - - SE 13 17 7 9 - - -
29/02:30pm - - - - - SE 17 20 9 11 - - -
29/02:00pm - - - - - SE 17 20 9 11 - - -
29/01:30pm - - - - - SE 17 20 9 11 - - -
29/01:00pm - - - - - SE 17 20 9 11 - - -
29/12:30pm - - - - - SSE 17 24 9 13 - - -
29/12:00pm - - - - - SSE 17 20 9 11 - - -
29/11:30am - - - - - SSE 17 24 9 13 - - -
29/11:00am - - - - - SSE 19 22 10 12 - - -
29/10:30am - - - - - S 17 20 9 11 - - -
29/10:00am - - - - - S 20 28 11 15 - - -
29/09:30am - - - - - S 24 30 13 16 - - -
29/09:00am - - - - - S 24 28 13 15 - - -
29/08:30am - - - - - S 24 30 13 16 - - -
29/08:00am - - - - - S 24 28 13 15 - - -
29/07:30am - - - - - S 24 30 13 16 - - -
29/07:00am - - - - - S 24 30 13 16 - - -
29/06:30am - - - - - S 22 28 12 15 - - -
29/06:00am - - - - - S 22 30 12 16 - - -
29/05:30am - - - - - S 22 30 12 16 - - -
29/05:00am - - - - - S 17 26 9 14 - - -
29/04:30am - - - - - SSE 20 32 11 17 - - -
29/04:00am - - - - - S 20 32 11 17 - - -
29/03:30am - - - - - S 28 37 15 20 - - -
29/03:00am - - - - - SSE 22 32 12 17 - - -
29/02:30am - - - - - S 22 30 12 16 - - -
29/02:00am - - - - - SSE 24 32 13 17 - - -
29/01:30am - - - - - S 20 33 11 18 - - -
29/01:00am - - - - - S 28 35 15 19 - - -
29/12:30am - - - - - S 28 37 15 20 - - -
29/12:00am - - - - - SSE 26 32 14 17 - - -
 
Date/Time
EDT
Temp
°C
App
Temp
°C
Dew
Point
°C
Rel
Hum
%
Delta-T
°C
Wind Press
QNH
hPa
Press
MSL
hPa
Rain since
9am
mm
Dir  Spd
km/h
Gust
km/h
Spd
kts
Gust
kts
28/11:30pm - - - - - SSE 28 35 15 19 - - -
28/11:00pm - - - - - SSE 33 39 18 21 - - -
28/10:30pm - - - - - SSE 35 41 19 22 - - -
28/10:00pm - - - - - SSE 30 37 16 20 - - -
28/09:30pm - - - - - SSE 35 41 19 22 - - -
28/09:00pm - - - - - SSE 35 41 19 22 - - -
28/08:30pm - - - - - S 35 46 19 25 - - -
28/08:00pm - - - - - SSE 35 43 19 23 - - -
28/07:30pm - - - - - SSE 41 50 22 27 - - -
28/07:00pm - - - - - SSE 43 54 23 29 - - -
28/06:30pm - - - - - SSE 39 48 21 26 - - -
28/06:00pm - - - - - SSE 39 48 21 26 - - -
28/05:30pm - - - - - SSE 39 46 21 25 - - -
28/05:00pm - - - - - SSE 41 52 22 28 - - -
28/04:30pm - - - - - SSE 41 50 22 27 - - -
28/04:00pm - - - - - SSE 37 48 20 26 - - -
28/03:30pm - - - - - SSE 43 52 23 28 - - -
28/03:00pm - - - - - SSE 44 56 24 30 - - -
28/02:30pm - - - - - SSE 41 52 22 28 - - -
28/02:00pm - - - - - S 43 52 23 28 - - -
28/01:30pm - - - - - SSE 43 50 23 27 - - -
28/01:00pm - - - - - S 37 44 20 24 - - -
28/12:30pm - - - - - S 37 43 20 23 - - -
28/12:00pm - - - - - S 41 50 22 27 - - -
28/11:30am - - - - - S 43 50 23 27 - - -
28/11:00am - - - - - S 41 54 22 29 - - -
28/10:30am - - - - - S 43 56 23 30 - - -
28/10:00am - - - - - S 48 56 26 30 - - -
28/09:30am - - - - - S 48 56 26 30 - - -
28/09:00am - - - - - S 46 52 25 28 - - -
28/08:30am - - - - - S 43 54 23 29 - - -
28/08:00am - - - - - S 46 52 25 28 - - -
28/07:30am - - - - - S 54 69 29 37 - - -
28/07:00am - - - - - SSE 52 61 28 33 - - -
28/06:30am - - - - - S 46 70 25 38 - - -
28/06:00am - - - - - SSE 46 61 25 33 - - -
28/05:30am - - - - - S 46 56 25 30 - - -
28/05:00am - - - - - SSE 50 63 27 34 - - -
28/04:30am - - - - - SSE 52 63 28 34 - - -
28/04:00am - - - - - SSE 52 65 28 35 - - -
28/03:30am - - - - - SSE 54 63 29 34 - - -
28/03:00am - - - - - SSE 52 63 28 34 - - -
28/02:30am - - - - - SSE 54 63 29 34 - - -
28/02:00am - - - - - SSE 52 61 28 33 - - -
28/01:30am - - - - - SSE 54 65 29 35 - - -
28/01:00am - - - - - SSE 54 65 29 35 - - -
28/12:30am - - - - - SSE 54 65 29 35 - - -
28/12:00am - - - - - SSE 54 63 29 34 - - -
 
Date/Time
EDT
Temp
°C
App
Temp
°C
Dew
Point
°C
Rel
Hum
%
Delta-T
°C
Wind Press
QNH
hPa
Press
MSL
hPa
Rain since
9am
mm
Dir  Spd
km/h
Gust
km/h
Spd
kts
Gust
kts
27/11:30pm - - - - - SSE 50 70 27 38 - - -
27/11:00pm - - - - - SSE 54 74 29 40 - - -
27/10:56pm - - - - - SSE 56 74 30 40 - - -
27/10:30pm - - - - - SSE 59 70 32 38 - - -
27/10:00pm - - - - - SSE 57 70 31 38 - - -
27/09:30pm - - - - - S 57 65 31 35 - - -
27/09:00pm - - - - - SSE 57 69 31 37 - - -
27/08:30pm - - - - - SSE 59 70 32 38 - - -
27/08:00pm - - - - - SSE 59 80 32 43 - - -
27/07:43pm - - - - - SSE 61 82 33 44 - - -
27/07:30pm - - - - - SSE 59 76 32 41 - - -
27/07:00pm - - - - - SSE 59 72 32 39 - - -
27/06:38pm - - - - - SSE 61 82 33 44 - - -
27/06:30pm - - - - - SSE 61 76 33 41 - - -
27/06:00pm - - - - - SSE 61 74 33 40 - - -
27/05:30pm - - - - - SSE 65 78 35 42 - - -
27/05:00pm - - - - - SSE 63 76 34 41 - - -
27/04:30pm - - - - - SSE 61 76 33 41 - - -
27/04:00pm - - - - - SSE 61 76 33 41 - - -
27/03:30pm - - - - - SSE 61 76 33 41 - - -
27/03:00pm - - - - - SSE 61 72 33 39 - - -
27/02:30pm - - - - - SSE 65 76 35 41 - - -
27/02:16pm - - - - - SSE 59 78 32 42 - - -
27/02:00pm - - - - - SSE 63 78 34 42 - - -

Latest Capital City Observations: Canberra | Sydney | Melbourne | Brisbane | Adelaide | Perth | Hobart | Darwin

Other formats

Comma delimited format used in spreadsheet applications
http://www.bom.gov.au/fwo/IDN60901/IDN60901.95752.axf

JavaScript Object Notation format (JSON) in row-major order
http://www.bom.gov.au/fwo/IDN60901/IDN60901.95752.json

Data quality

Most of these data are generated automatically and are frequently updated. Quality checks on data are not normally performed. It is possible for incorrect values to appear. Refer to information at About Latest Weather Observations and please check the disclaimer before using these data.